sensor_id;sensor_type;location;lat;lon;timestamp;temperature;humidity
23801;DHT22;12081;48.614;10.226;2023-02-10T00:02:03;-7.30;99.90
23801;DHT22;12081;48.614;10.226;2023-02-10T00:04:47;-7.30;99.90
23801;DHT22;12081;48.614;10.226;2023-02-10T00:07:31;-7.30;99.90
23801;DHT22;12081;48.614;10.226;2023-02-10T00:10:15;-7.40;99.90
23801;DHT22;12081;48.614;10.226;2023-02-10T00:13:00;-7.40;99.90
23801;DHT22;12081;48.614;10.226;2023-02-10T00:15:44;-7.40;99.90
23801;DHT22;12081;48.614;10.226;2023-02-10T00:18:28;-7.50;99.90
23801;DHT22;12081;48.614;10.226;2023-02-10T00:21:14;-7.50;99.90
23801;DHT22;12081;48.614;10.226;2023-02-10T00:23:59;-5.00;99.90
23801;DHT22;12081;48.614;10.226;2023-02-10T00:26:43;-4.70;99.90
23801;DHT22;12081;48.614;10.226;2023-02-10T00:29:27;-7.50;99.90
23801;DHT22;12081;48.614;10.226;2023-02-10T00:32:12;-7.40;99.90
23801;DHT22;12081;48.614;10.226;2023-02-10T00:34:56;-6.80;99.90
23801;DHT22;12081;48.614;10.226;2023-02-10T00:37:40;-4.60;99.90
23801;DHT22;12081;48.614;10.226;2023-02-10T00:40:24;-4.30;99.90
23801;DHT22;12081;48.614;10.226;2023-02-10T00:43:08;-7.20;99.90
23801;DHT22;12081;48.614;10.226;2023-02-10T00:45:52;-6.70;99.90
23801;DHT22;12081;48.614;10.226;2023-02-10T00:48:36;-4.90;99.90
23801;DHT22;12081;48.614;10.226;2023-02-10T00:51:20;-4.20;99.90
23801;DHT22;12081;48.614;10.226;2023-02-10T00:54:05;-7.10;99.90
23801;DHT22;12081;48.614;10.226;2023-02-10T00:56:49;-7.10;99.90
23801;DHT22;12081;48.614;10.226;2023-02-10T00:59:33;-7.10;99.90
23801;DHT22;12081;48.614;10.226;2023-02-10T01:02:17;-4.90;99.90
23801;DHT22;12081;48.614;10.226;2023-02-10T01:05:01;-4.10;99.90
23801;DHT22;12081;48.614;10.226;2023-02-10T01:07:47;-5.30;99.90
23801;DHT22;12081;48.614;10.226;2023-02-10T01:10:33;-7.10;99.90
23801;DHT22;12081;48.614;10.226;2023-02-10T01:13:20;-7.20;99.90
23801;DHT22;12081;48.614;10.226;2023-02-10T01:16:07;-7.40;99.90
23801;DHT22;12081;48.614;10.226;2023-02-10T01:18:54;-7.50;99.90
23801;DHT22;12081;48.614;10.226;2023-02-10T01:21:38;-7.70;99.90
23801;DHT22;12081;48.614;10.226;2023-02-10T01:24:22;-7.80;99.90
23801;DHT22;12081;48.614;10.226;2023-02-10T01:27:09;-7.00;99.90
23801;DHT22;12081;48.614;10.226;2023-02-10T01:29:54;-8.00;99.90
23801;DHT22;12081;48.614;10.226;2023-02-10T01:32:38;-8.10;99.90
23801;DHT22;12081;48.614;10.226;2023-02-10T01:35:23;-8.00;99.90
23801;DHT22;12081;48.614;10.226;2023-02-10T01:38:07;-4.90;99.90
23801;DHT22;12081;48.614;10.226;2023-02-10T01:40:51;-7.70;99.90
23801;DHT22;12081;48.614;10.226;2023-02-10T01:46:38;-7.60;99.90
23801;DHT22;12081;48.614;10.226;2023-02-10T01:49:28;-7.70;99.90
23801;DHT22;12081;48.614;10.226;2023-02-10T01:52:24;-7.80;99.90
23801;DHT22;12081;48.614;10.226;2023-02-10T01:55:13;-7.90;99.90
23801;DHT22;12081;48.614;10.226;2023-02-10T01:57:58;-8.00;99.90
23801;DHT22;12081;48.614;10.226;2023-02-10T02:00:42;-4.90;99.90
23801;DHT22;12081;48.614;10.226;2023-02-10T02:03:26;-8.10;99.90
23801;DHT22;12081;48.614;10.226;2023-02-10T02:06:10;-8.20;99.90
23801;DHT22;12081;48.614;10.226;2023-02-10T02:08:54;-8.30;99.90
23801;DHT22;12081;48.614;10.226;2023-02-10T02:15:03;-8.20;99.90
23801;DHT22;12081;48.614;10.226;2023-02-10T02:18:02;-7.90;99.90
23801;DHT22;12081;48.614;10.226;2023-02-10T02:20:59;-7.90;99.90
23801;DHT22;12081;48.614;10.226;2023-02-10T02:23:56;-8.00;99.90
23801;DHT22;12081;48.614;10.226;2023-02-10T02:33:30;-8.30;99.90
23801;DHT22;12081;48.614;10.226;2023-02-10T02:36:20;-8.30;99.90
23801;DHT22;12081;48.614;10.226;2023-02-10T02:39:06;-8.50;99.90
23801;DHT22;12081;48.614;10.226;2023-02-10T02:42:19;-8.40;99.90
23801;DHT22;12081;48.614;10.226;2023-02-10T02:45:19;-8.50;99.90
23801;DHT22;12081;48.614;10.226;2023-02-10T02:48:13;-8.60;99.90
23801;DHT22;12081;48.614;10.226;2023-02-10T03:00:30;-7.00;99.90
23801;DHT22;12081;48.614;10.226;2023-02-10T03:03:16;-8.80;99.90
23801;DHT22;12081;48.614;10.226;2023-02-10T03:06:02;-8.90;99.90
23801;DHT22;12081;48.614;10.226;2023-02-10T03:08:47;-9.20;99.90
23801;DHT22;12081;48.614;10.226;2023-02-10T03:11:34;-7.70;99.90
23801;DHT22;12081;48.614;10.226;2023-02-10T03:14:19;-9.40;99.90
23801;DHT22;12081;48.614;10.226;2023-02-10T03:17:06;-11.00;99.90
23801;DHT22;12081;48.614;10.226;2023-02-10T03:19:55;-9.60;99.90
23801;DHT22;12081;48.614;10.226;2023-02-10T03:22:41;-7.70;99.90
23801;DHT22;12081;48.614;10.226;2023-02-10T03:25:26;-8.20;99.90
23801;DHT22;12081;48.614;10.226;2023-02-10T03:28:14;-7.80;99.90
23801;DHT22;12081;48.614;10.226;2023-02-10T03:31:06;-8.00;99.90
23801;DHT22;12081;48.614;10.226;2023-02-10T03:33:51;-7.00;99.90
23801;DHT22;12081;48.614;10.226;2023-02-10T03:36:35;-8.90;99.90
23801;DHT22;12081;48.614;10.226;2023-02-10T03:39:20;-7.00;99.90
23801;DHT22;12081;48.614;10.226;2023-02-10T03:42:05;-7.00;99.90
23801;DHT22;12081;48.614;10.226;2023-02-10T03:44:50;-6.40;99.90
23801;DHT22;12081;48.614;10.226;2023-02-10T03:47:35;-9.20;99.90
23801;DHT22;12081;48.614;10.226;2023-02-10T03:50:19;-6.90;99.90
23801;DHT22;12081;48.614;10.226;2023-02-10T03:53:03;-9.30;99.90
23801;DHT22;12081;48.614;10.226;2023-02-10T03:55:48;-7.50;99.90
23801;DHT22;12081;48.614;10.226;2023-02-10T03:58:32;-7.30;99.90
23801;DHT22;12081;48.614;10.226;2023-02-10T04:01:17;-10.90;99.90
23801;DHT22;12081;48.614;10.226;2023-02-10T04:04:02;-7.70;99.90
23801;DHT22;12081;48.614;10.226;2023-02-10T04:06:46;-7.60;99.90
23801;DHT22;12081;48.614;10.226;2023-02-10T04:09:31;-7.30;99.90
23801;DHT22;12081;48.614;10.226;2023-02-10T04:12:15;-7.90;99.90
23801;DHT22;12081;48.614;10.226;2023-02-10T04:15:00;-8.00;99.90
23801;DHT22;12081;48.614;10.226;2023-02-10T04:17:44;-9.40;99.90
23801;DHT22;12081;48.614;10.226;2023-02-10T04:20:29;-9.70;99.90
23801;DHT22;12081;48.614;10.226;2023-02-10T04:23:13;-8.30;99.90
23801;DHT22;12081;48.614;10.226;2023-02-10T04:25:58;-7.30;99.90
23801;DHT22;12081;48.614;10.226;2023-02-10T04:28:42;-9.60;99.90
23801;DHT22;12081;48.614;10.226;2023-02-10T04:31:27;-9.60;99.90
23801;DHT22;12081;48.614;10.226;2023-02-10T04:34:11;-9.80;99.90
23801;DHT22;12081;48.614;10.226;2023-02-10T04:36:55;-8.60;99.90
23801;DHT22;12081;48.614;10.226;2023-02-10T04:39:39;-8.00;99.90
23801;DHT22;12081;48.614;10.226;2023-02-10T04:42:24;-7.90;99.90
23801;DHT22;12081;48.614;10.226;2023-02-10T04:45:13;-8.60;99.90
23801;DHT22;12081;48.614;10.226;2023-02-10T04:47:58;-6.80;99.90
23801;DHT22;12081;48.614;10.226;2023-02-10T04:50:42;-9.80;99.90
23801;DHT22;12081;48.614;10.226;2023-02-10T04:53:27;-9.30;99.90
23801;DHT22;12081;48.614;10.226;2023-02-10T04:56:12;-7.60;99.90
23801;DHT22;12081;48.614;10.226;2023-02-10T04:59:06;-7.30;99.90
23801;DHT22;12081;48.614;10.226;2023-02-10T05:01:51;-10.60;99.90
23801;DHT22;12081;48.614;10.226;2023-02-10T05:04:35;-9.30;99.90
23801;DHT22;12081;48.614;10.226;2023-02-10T05:07:19;-7.80;99.90
23801;DHT22;12081;48.614;10.226;2023-02-10T05:15:15;-9.40;99.90
23801;DHT22;12081;48.614;10.226;2023-02-10T05:18:01;-8.50;99.90
23801;DHT22;12081;48.614;10.226;2023-02-10T05:20:46;-7.90;99.90
23801;DHT22;12081;48.614;10.226;2023-02-10T05:23:30;-7.90;99.90
23801;DHT22;12081;48.614;10.226;2023-02-10T05:26:18;-9.10;99.90
23801;DHT22;12081;48.614;10.226;2023-02-10T05:29:03;-7.50;99.90
23801;DHT22;12081;48.614;10.226;2023-02-10T05:31:48;-7.30;99.90
23801;DHT22;12081;48.614;10.226;2023-02-10T05:34:34;-8.80;99.90
23801;DHT22;12081;48.614;10.226;2023-02-10T05:37:22;-7.30;99.90
23801;DHT22;12081;48.614;10.226;2023-02-10T05:40:08;-7.90;99.90
23801;DHT22;12081;48.614;10.226;2023-02-10T05:42:53;-11.40;99.90
23801;DHT22;12081;48.614;10.226;2023-02-10T05:45:37;-7.80;99.90
23801;DHT22;12081;48.614;10.226;2023-02-10T05:48:22;-7.60;99.90
23801;DHT22;12081;48.614;10.226;2023-02-10T05:51:10;-7.30;99.90
23801;DHT22;12081;48.614;10.226;2023-02-10T05:53:55;-9.50;99.90
23801;DHT22;12081;48.614;10.226;2023-02-10T05:56:42;-8.10;99.90
23801;DHT22;12081;48.614;10.226;2023-02-10T05:59:27;-8.20;99.90
23801;DHT22;12081;48.614;10.226;2023-02-10T06:02:14;-9.10;99.90
23801;DHT22;12081;48.614;10.226;2023-02-10T06:04:59;-8.70;99.90
23801;DHT22;12081;48.614;10.226;2023-02-10T06:07:43;-7.60;99.90
23801;DHT22;12081;48.614;10.226;2023-02-10T06:10:29;-10.70;99.90
23801;DHT22;12081;48.614;10.226;2023-02-10T06:13:13;-9.50;99.90
23801;DHT22;12081;48.614;10.226;2023-02-10T06:16:01;-7.70;99.90
23801;DHT22;12081;48.614;10.226;2023-02-10T06:18:45;-8.00;99.90
23801;DHT22;12081;48.614;10.226;2023-02-10T06:21:32;-8.10;99.90
23801;DHT22;12081;48.614;10.226;2023-02-10T06:24:17;-7.80;99.90
23801;DHT22;12081;48.614;10.226;2023-02-10T06:27:01;-9.20;99.90
23801;DHT22;12081;48.614;10.226;2023-02-10T06:29:46;-7.60;99.90
23801;DHT22;12081;48.614;10.226;2023-02-10T06:32:39;-9.40;99.90
23801;DHT22;12081;48.614;10.226;2023-02-10T06:35:25;-7.40;99.90
23801;DHT22;12081;48.614;10.226;2023-02-10T06:38:09;-9.70;99.90
23801;DHT22;12081;48.614;10.226;2023-02-10T06:40:54;-9.60;99.90
23801;DHT22;12081;48.614;10.226;2023-02-10T06:43:38;-8.10;99.90
23801;DHT22;12081;48.614;10.226;2023-02-10T06:46:22;-9.50;99.90
23801;DHT22;12081;48.614;10.226;2023-02-10T06:49:06;-9.40;99.90
23801;DHT22;12081;48.614;10.226;2023-02-10T06:51:50;-9.70;99.90
23801;DHT22;12081;48.614;10.226;2023-02-10T06:54:35;-7.70;99.90
23801;DHT22;12081;48.614;10.226;2023-02-10T06:57:19;-7.20;99.90
23801;DHT22;12081;48.614;10.226;2023-02-10T07:00:05;-9.20;99.90
23801;DHT22;12081;48.614;10.226;2023-02-10T07:02:51;-9.10;99.90
23801;DHT22;12081;48.614;10.226;2023-02-10T07:05:35;-9.10;99.90
23801;DHT22;12081;48.614;10.226;2023-02-10T07:08:19;-7.40;99.90
23801;DHT22;12081;48.614;10.226;2023-02-10T07:11:03;-8.90;99.90
23801;DHT22;12081;48.614;10.226;2023-02-10T07:13:47;-8.80;99.90
23801;DHT22;12081;48.614;10.226;2023-02-10T07:16:31;-8.40;99.90
23801;DHT22;12081;48.614;10.226;2023-02-10T07:19:15;-7.60;99.90
23801;DHT22;12081;48.614;10.226;2023-02-10T07:21:59;-6.20;99.90
23801;DHT22;12081;48.614;10.226;2023-02-10T07:24:46;-5.20;99.90
23801;DHT22;12081;48.614;10.226;2023-02-10T07:27:30;-4.00;99.90
23801;DHT22;12081;48.614;10.226;2023-02-10T07:30:14;-3.20;99.90
23801;DHT22;12081;48.614;10.226;2023-02-10T07:32:58;-2.40;99.90
23801;DHT22;12081;48.614;10.226;2023-02-10T07:35:45;-1.60;99.90
23801;DHT22;12081;48.614;10.226;2023-02-10T07:38:29;-0.70;99.90
23801;DHT22;12081;48.614;10.226;2023-02-10T07:41:14;0.50;99.90
23801;DHT22;12081;48.614;10.226;2023-02-10T07:43:58;1.20;96.40
23801;DHT22;12081;48.614;10.226;2023-02-10T07:46:42;1.80;90.30
23801;DHT22;12081;48.614;10.226;2023-02-10T07:49:26;2.30;85.00
23801;DHT22;12081;48.614;10.226;2023-02-10T07:52:12;2.70;83.10
23801;DHT22;12081;48.614;10.226;2023-02-10T07:54:56;3.30;78.10
23801;DHT22;12081;48.614;10.226;2023-02-10T07:57:42;4.10;76.90
23801;DHT22;12081;48.614;10.226;2023-02-10T08:00:26;5.00;72.40
23801;DHT22;12081;48.614;10.226;2023-02-10T08:03:14;5.70;68.50
23801;DHT22;12081;48.614;10.226;2023-02-10T08:05:58;6.30;60.10
23801;DHT22;12081;48.614;10.226;2023-02-10T08:08:42;6.80;58.90
23801;DHT22;12081;48.614;10.226;2023-02-10T08:11:26;7.20;57.60
23801;DHT22;12081;48.614;10.226;2023-02-10T08:14:10;7.80;56.60
23801;DHT22;12081;48.614;10.226;2023-02-10T08:16:54;8.50;53.90
23801;DHT22;12081;48.614;10.226;2023-02-10T08:19:39;9.20;52.20
23801;DHT22;12081;48.614;10.226;2023-02-10T08:22:23;9.80;50.50
23801;DHT22;12081;48.614;10.226;2023-02-10T08:25:07;10.10;49.70
23801;DHT22;12081;48.614;10.226;2023-02-10T08:27:52;10.50;49.00
23801;DHT22;12081;48.614;10.226;2023-02-10T08:30:36;10.80;48.80
23801;DHT22;12081;48.614;10.226;2023-02-10T08:33:20;11.00;48.00
23801;DHT22;12081;48.614;10.226;2023-02-10T08:36:06;11.50;48.00
23801;DHT22;12081;48.614;10.226;2023-02-10T08:38:51;12.00;47.10
23801;DHT22;12081;48.614;10.226;2023-02-10T08:41:35;12.40;45.60
23801;DHT22;12081;48.614;10.226;2023-02-10T08:44:19;12.90;44.90
23801;DHT22;12081;48.614;10.226;2023-02-10T08:47:04;13.00;44.40
23801;DHT22;12081;48.614;10.226;2023-02-10T08:49:48;13.60;44.60
23801;DHT22;12081;48.614;10.226;2023-02-10T08:52:32;13.10;44.50
23801;DHT22;12081;48.614;10.226;2023-02-10T08:55:16;13.60;44.30
23801;DHT22;12081;48.614;10.226;2023-02-10T08:58:00;13.80;43.50
23801;DHT22;12081;48.614;10.226;2023-02-10T09:00:44;14.00;43.10
23801;DHT22;12081;48.614;10.226;2023-02-10T09:03:28;14.30;43.30
23801;DHT22;12081;48.614;10.226;2023-02-10T09:06:18;14.60;43.20
23801;DHT22;12081;48.614;10.226;2023-02-10T09:09:04;14.80;43.10
23801;DHT22;12081;48.614;10.226;2023-02-10T09:11:48;14.70;43.20
23801;DHT22;12081;48.614;10.226;2023-02-10T09:14:32;15.60;43.80
23801;DHT22;12081;48.614;10.226;2023-02-10T09:17:16;14.90;43.10
23801;DHT22;12081;48.614;10.226;2023-02-10T09:20:00;15.00;42.90
23801;DHT22;12081;48.614;10.226;2023-02-10T09:22:44;15.10;43.00
23801;DHT22;12081;48.614;10.226;2023-02-10T09:25:30;15.70;42.30
23801;DHT22;12081;48.614;10.226;2023-02-10T09:28:14;16.30;41.80
23801;DHT22;12081;48.614;10.226;2023-02-10T09:30:59;17.00;40.20
23801;DHT22;12081;48.614;10.226;2023-02-10T09:33:43;17.60;39.30
23801;DHT22;12081;48.614;10.226;2023-02-10T09:36:28;18.20;38.70
23801;DHT22;12081;48.614;10.226;2023-02-10T09:39:12;18.70;38.20
23801;DHT22;12081;48.614;10.226;2023-02-10T09:45:18;20.00;37.20
23801;DHT22;12081;48.614;10.226;2023-02-10T09:48:25;21.00;36.50
23801;DHT22;12081;48.614;10.226;2023-02-10T09:54:20;21.20;34.70
23801;DHT22;12081;48.614;10.226;2023-02-10T09:57:17;21.70;34.10
23801;DHT22;12081;48.614;10.226;2023-02-10T10:00:46;22.00;33.60
23801;DHT22;12081;48.614;10.226;2023-02-10T10:03:17;22.00;33.60
23801;DHT22;12081;48.614;10.226;2023-02-10T10:06:16;21.10;34.00
23801;DHT22;12081;48.614;10.226;2023-02-10T10:12:17;19.90;34.40
23801;DHT22;12081;48.614;10.226;2023-02-10T10:15:04;19.60;34.90
23801;DHT22;12081;48.614;10.226;2023-02-10T10:21:13;20.30;34.50
23801;DHT22;12081;48.614;10.226;2023-02-10T10:24:26;20.30;34.80
23801;DHT22;12081;48.614;10.226;2023-02-10T10:30:17;21.60;34.00
23801;DHT22;12081;48.614;10.226;2023-02-10T10:33:20;22.20;32.80
23801;DHT22;12081;48.614;10.226;2023-02-10T10:36:17;21.60;32.90
23801;DHT22;12081;48.614;10.226;2023-02-10T10:42:36;22.20;33.40
23801;DHT22;12081;48.614;10.226;2023-02-10T10:45:34;22.40;32.70
23801;DHT22;12081;48.614;10.226;2023-02-10T10:48:22;22.60;33.00
23801;DHT22;12081;48.614;10.226;2023-02-10T10:51:13;22.70;32.30
23801;DHT22;12081;48.614;10.226;2023-02-10T10:53:58;22.70;32.70
23801;DHT22;12081;48.614;10.226;2023-02-10T10:56:58;22.20;32.80
23801;DHT22;12081;48.614;10.226;2023-02-10T10:59:48;22.00;33.40
23801;DHT22;12081;48.614;10.226;2023-02-10T11:02:34;21.30;34.20
23801;DHT22;12081;48.614;10.226;2023-02-10T11:05:18;20.20;35.10
23801;DHT22;12081;48.614;10.226;2023-02-10T11:08:07;20.20;35.30
23801;DHT22;12081;48.614;10.226;2023-02-10T11:10:55;20.70;35.00
23801;DHT22;12081;48.614;10.226;2023-02-10T11:13:50;20.80;34.40
23801;DHT22;12081;48.614;10.226;2023-02-10T11:16:44;21.10;34.00
23801;DHT22;12081;48.614;10.226;2023-02-10T11:19:32;21.70;33.90
23801;DHT22;12081;48.614;10.226;2023-02-10T11:22:20;22.00;33.40
23801;DHT22;12081;48.614;10.226;2023-02-10T11:25:28;22.50;32.80
23801;DHT22;12081;48.614;10.226;2023-02-10T11:28:19;22.50;32.70
23801;DHT22;12081;48.614;10.226;2023-02-10T11:31:06;22.50;32.60
23801;DHT22;12081;48.614;10.226;2023-02-10T11:34:18;22.60;32.10
23801;DHT22;12081;48.614;10.226;2023-02-10T11:37:23;22.80;32.00
23801;DHT22;12081;48.614;10.226;2023-02-10T11:40:53;22.50;32.00
23801;DHT22;12081;48.614;10.226;2023-02-10T11:43:45;22.30;32.60
23801;DHT22;12081;48.614;10.226;2023-02-10T11:46:30;22.40;32.20
23801;DHT22;12081;48.614;10.226;2023-02-10T11:49:17;22.50;31.90
23801;DHT22;12081;48.614;10.226;2023-02-10T11:52:03;22.50;32.10
23801;DHT22;12081;48.614;10.226;2023-02-10T11:54:48;22.30;32.00
23801;DHT22;12081;48.614;10.226;2023-02-10T12:06:38;19.70;34.50
23801;DHT22;12081;48.614;10.226;2023-02-10T12:09:40;19.40;35.50
23801;DHT22;12081;48.614;10.226;2023-02-10T12:15:34;20.60;34.60
23801;DHT22;12081;48.614;10.226;2023-02-10T12:18:35;21.40;33.30
23801;DHT22;12081;48.614;10.226;2023-02-10T12:24:57;22.00;32.10
23801;DHT22;12081;48.614;10.226;2023-02-10T12:43:35;23.30;30.30
23801;DHT22;12081;48.614;10.226;2023-02-10T12:46:49;23.00;30.60
23801;DHT22;12081;48.614;10.226;2023-02-10T12:50:16;23.50;31.40
23801;DHT22;12081;48.614;10.226;2023-02-10T12:53:14;22.50;30.90
23801;DHT22;12081;48.614;10.226;2023-02-10T13:02:42;20.40;33.40
23801;DHT22;12081;48.614;10.226;2023-02-10T13:05:32;19.70;34.20
23801;DHT22;12081;48.614;10.226;2023-02-10T13:08:28;19.50;35.30
23801;DHT22;12081;48.614;10.226;2023-02-10T13:14:19;17.20;37.10
23801;DHT22;12081;48.614;10.226;2023-02-10T13:17:06;17.20;38.40
23801;DHT22;12081;48.614;10.226;2023-02-10T13:19:57;16.10;39.70
23801;DHT22;12081;48.614;10.226;2023-02-10T13:22:59;15.50;40.60
23801;DHT22;12081;48.614;10.226;2023-02-10T13:25:54;15.40;41.40
23801;DHT22;12081;48.614;10.226;2023-02-10T13:28:55;14.90;41.50
23801;DHT22;12081;48.614;10.226;2023-02-10T13:34:54;14.60;43.00
23801;DHT22;12081;48.614;10.226;2023-02-10T13:37:45;14.50;43.30
23801;DHT22;12081;48.614;10.226;2023-02-10T13:40:49;14.50;43.80
23801;DHT22;12081;48.614;10.226;2023-02-10T13:43:35;14.50;43.90
23801;DHT22;12081;48.614;10.226;2023-02-10T13:46:26;14.50;44.00
23801;DHT22;12081;48.614;10.226;2023-02-10T13:49:16;14.90;44.00
23801;DHT22;12081;48.614;10.226;2023-02-10T13:52:15;15.30;43.50
23801;DHT22;12081;48.614;10.226;2023-02-10T13:55:24;15.40;43.10
23801;DHT22;12081;48.614;10.226;2023-02-10T14:00:56;14.60;43.90
23801;DHT22;12081;48.614;10.226;2023-02-10T14:03:40;13.90;44.40
23801;DHT22;12081;48.614;10.226;2023-02-10T14:06:35;13.40;46.10
23801;DHT22;12081;48.614;10.226;2023-02-10T14:09:33;13.00;46.80
23801;DHT22;12081;48.614;10.226;2023-02-10T14:12:28;12.90;47.80
23801;DHT22;12081;48.614;10.226;2023-02-10T14:15:26;12.30;47.70
23801;DHT22;12081;48.614;10.226;2023-02-10T14:18:26;12.20;48.40
23801;DHT22;12081;48.614;10.226;2023-02-10T14:21:13;11.80;47.80
23801;DHT22;12081;48.614;10.226;2023-02-10T14:23:58;11.40;48.90
23801;DHT22;12081;48.614;10.226;2023-02-10T14:26:44;10.90;49.40
23801;DHT22;12081;48.614;10.226;2023-02-10T14:29:31;10.70;50.40
23801;DHT22;12081;48.614;10.226;2023-02-10T14:32:16;10.30;51.40
23801;DHT22;12081;48.614;10.226;2023-02-10T14:35:03;9.90;52.10
23801;DHT22;12081;48.614;10.226;2023-02-10T14:37:54;9.70;52.80
23801;DHT22;12081;48.614;10.226;2023-02-10T14:40:39;9.80;53.50
23801;DHT22;12081;48.614;10.226;2023-02-10T14:43:30;9.80;53.00
23801;DHT22;12081;48.614;10.226;2023-02-10T14:46:22;9.90;53.40
23801;DHT22;12081;48.614;10.226;2023-02-10T14:49:09;9.80;52.80
23801;DHT22;12081;48.614;10.226;2023-02-10T14:51:54;9.60;53.30
23801;DHT22;12081;48.614;10.226;2023-02-10T14:54:38;9.70;53.80
23801;DHT22;12081;48.614;10.226;2023-02-10T14:57:27;9.70;53.60
23801;DHT22;12081;48.614;10.226;2023-02-10T15:00:12;9.70;53.60
23801;DHT22;12081;48.614;10.226;2023-02-10T15:02:59;9.60;53.30
23801;DHT22;12081;48.614;10.226;2023-02-10T15:05:46;9.50;53.80
23801;DHT22;12081;48.614;10.226;2023-02-10T15:11:41;9.40;53.70
23801;DHT22;12081;48.614;10.226;2023-02-10T15:15:00;9.10;53.90
23801;DHT22;12081;48.614;10.226;2023-02-10T15:17:47;8.80;54.50
23801;DHT22;12081;48.614;10.226;2023-02-10T15:20:32;8.60;54.80
23801;DHT22;12081;48.614;10.226;2023-02-10T15:23:17;8.50;55.40
23801;DHT22;12081;48.614;10.226;2023-02-10T15:26:24;8.40;55.70
23801;DHT22;12081;48.614;10.226;2023-02-10T15:29:11;8.30;56.20
23801;DHT22;12081;48.614;10.226;2023-02-10T15:31:58;8.20;56.10
23801;DHT22;12081;48.614;10.226;2023-02-10T15:34:42;8.00;56.20
23801;DHT22;12081;48.614;10.226;2023-02-10T15:37:26;7.70;57.00
23801;DHT22;12081;48.614;10.226;2023-02-10T15:43:21;7.20;58.00
23801;DHT22;12081;48.614;10.226;2023-02-10T15:46:16;7.00;58.50
23801;DHT22;12081;48.614;10.226;2023-02-10T15:49:20;6.80;58.90
23801;DHT22;12081;48.614;10.226;2023-02-10T15:52:04;6.60;59.60
23801;DHT22;12081;48.614;10.226;2023-02-10T15:54:49;6.40;59.60
23801;DHT22;12081;48.614;10.226;2023-02-10T15:57:34;6.10;60.00
23801;DHT22;12081;48.614;10.226;2023-02-10T16:03:07;5.60;62.10
23801;DHT22;12081;48.614;10.226;2023-02-10T16:05:51;5.30;63.50
23801;DHT22;12081;48.614;10.226;2023-02-10T16:08:39;5.00;64.50
23801;DHT22;12081;48.614;10.226;2023-02-10T16:11:24;4.70;66.00
23801;DHT22;12081;48.614;10.226;2023-02-10T16:14:10;4.40;67.30
23801;DHT22;12081;48.614;10.226;2023-02-10T16:16:56;4.10;68.20
23801;DHT22;12081;48.614;10.226;2023-02-10T16:19:41;3.90;69.80
23801;DHT22;12081;48.614;10.226;2023-02-10T16:22:25;3.60;71.50
23801;DHT22;12081;48.614;10.226;2023-02-10T16:25:09;3.40;72.90
23801;DHT22;12081;48.614;10.226;2023-02-10T16:27:54;3.20;74.20
23801;DHT22;12081;48.614;10.226;2023-02-10T16:30:38;3.00;76.10
23801;DHT22;12081;48.614;10.226;2023-02-10T16:33:22;2.90;77.60
23801;DHT22;12081;48.614;10.226;2023-02-10T16:36:07;2.70;78.60
23801;DHT22;12081;48.614;10.226;2023-02-10T16:38:52;2.60;80.20
23801;DHT22;12081;48.614;10.226;2023-02-10T16:41:35;2.30;82.70
23801;DHT22;12081;48.614;10.226;2023-02-10T16:44:20;2.10;87.20
23801;DHT22;12081;48.614;10.226;2023-02-10T16:47:04;2.00;90.60
23801;DHT22;12081;48.614;10.226;2023-02-10T16:49:49;1.80;92.40
23801;DHT22;12081;48.614;10.226;2023-02-10T16:52:33;1.60;94.10
23801;DHT22;12081;48.614;10.226;2023-02-10T16:55:20;1.50;96.20
23801;DHT22;12081;48.614;10.226;2023-02-10T16:58:05;1.40;97.70
23801;DHT22;12081;48.614;10.226;2023-02-10T17:00:49;1.30;99.10
23801;DHT22;12081;48.614;10.226;2023-02-10T17:03:33;1.10;99.90
23801;DHT22;12081;48.614;10.226;2023-02-10T17:06:19;-0.80;99.90
23801;DHT22;12081;48.614;10.226;2023-02-10T17:09:04;0.80;99.90
23801;DHT22;12081;48.614;10.226;2023-02-10T17:11:48;0.80;99.90
23801;DHT22;12081;48.614;10.226;2023-02-10T17:14:33;0.70;99.90
23801;DHT22;12081;48.614;10.226;2023-02-10T17:17:17;0.60;99.90
23801;DHT22;12081;48.614;10.226;2023-02-10T17:20:02;0.50;99.90
23801;DHT22;12081;48.614;10.226;2023-02-10T17:22:47;0.70;99.90
23801;DHT22;12081;48.614;10.226;2023-02-10T17:25:32;0.30;99.90
23801;DHT22;12081;48.614;10.226;2023-02-10T17:28:17;0.30;99.90
23801;DHT22;12081;48.614;10.226;2023-02-10T17:31:02;0.30;99.90
23801;DHT22;12081;48.614;10.226;2023-02-10T17:33:46;0.30;99.90
23801;DHT22;12081;48.614;10.226;2023-02-10T17:36:34;0.20;99.90
23801;DHT22;12081;48.614;10.226;2023-02-10T17:39:19;0.00;99.90
23801;DHT22;12081;48.614;10.226;2023-02-10T17:42:06;-0.10;99.90
23801;DHT22;12081;48.614;10.226;2023-02-10T17:44:50;-0.20;99.90
23801;DHT22;12081;48.614;10.226;2023-02-10T17:47:35;-0.40;99.90
23801;DHT22;12081;48.614;10.226;2023-02-10T17:50:19;-0.50;99.90
23801;DHT22;12081;48.614;10.226;2023-02-10T17:53:03;-0.60;99.90
23801;DHT22;12081;48.614;10.226;2023-02-10T17:55:47;-0.60;99.90
23801;DHT22;12081;48.614;10.226;2023-02-10T17:58:32;-0.70;99.90
23801;DHT22;12081;48.614;10.226;2023-02-10T18:01:29;-0.80;99.90
23801;DHT22;12081;48.614;10.226;2023-02-10T18:04:17;-0.90;99.90
23801;DHT22;12081;48.614;10.226;2023-02-10T18:07:01;-1.00;99.90
23801;DHT22;12081;48.614;10.226;2023-02-10T18:09:45;-1.20;99.90
23801;DHT22;12081;48.614;10.226;2023-02-10T18:12:29;-1.20;99.90
23801;DHT22;12081;48.614;10.226;2023-02-10T18:15:13;-1.30;99.90
23801;DHT22;12081;48.614;10.226;2023-02-10T18:17:57;-1.30;99.90
23801;DHT22;12081;48.614;10.226;2023-02-10T18:20:42;-1.30;99.90
23801;DHT22;12081;48.614;10.226;2023-02-10T18:23:28;-1.40;99.90
23801;DHT22;12081;48.614;10.226;2023-02-10T18:26:13;-1.40;99.90
23801;DHT22;12081;48.614;10.226;2023-02-10T18:28:57;-1.50;99.90
23801;DHT22;12081;48.614;10.226;2023-02-10T18:31:42;-1.70;99.90
23801;DHT22;12081;48.614;10.226;2023-02-10T18:34:26;-1.80;99.90
23801;DHT22;12081;48.614;10.226;2023-02-10T18:37:10;-1.40;99.90
23801;DHT22;12081;48.614;10.226;2023-02-10T18:39:54;-1.90;99.90
23801;DHT22;12081;48.614;10.226;2023-02-10T18:42:39;-1.90;99.90
23801;DHT22;12081;48.614;10.226;2023-02-10T18:45:23;-2.00;99.90
23801;DHT22;12081;48.614;10.226;2023-02-10T18:48:07;-2.10;99.90
23801;DHT22;12081;48.614;10.226;2023-02-10T18:50:52;-1.90;99.90
23801;DHT22;12081;48.614;10.226;2023-02-10T18:53:35;-2.00;99.90
23801;DHT22;12081;48.614;10.226;2023-02-10T18:56:23;-2.30;99.90
23801;DHT22;12081;48.614;10.226;2023-02-10T18:59:07;-2.20;99.90
23801;DHT22;12081;48.614;10.226;2023-02-10T19:01:52;-2.30;99.90
23801;DHT22;12081;48.614;10.226;2023-02-10T19:04:36;-2.30;99.90
23801;DHT22;12081;48.614;10.226;2023-02-10T19:07:20;-2.30;99.90
23801;DHT22;12081;48.614;10.226;2023-02-10T19:10:05;-2.30;99.90